Time;durP1;ratioP1;P1;durP2;ratioP2;P2;SDS_P1;SDS_P2;PMS_P1;PMS_P2;Temp;Humidity;BMP_temperature;BMP_pressure;BME280_temperature;BME280_humidity;BME280_pressure;Samples;Min_cycle;Max_cycle;Signal;HPM_P1;HPM_P2
2022/11/13 00:00:04;;;;;;;14.95;10.55;;;7.90;99.90;;;;;;5112519;28;20082;-70
2022/11/13 00:02:33;;;;;;;16.70;10.18;;;7.90;99.90;;;;;;5112113;28;20035;-70
2022/11/13 00:04:58;;;;;;;15.93;10.50;;;7.90;99.90;;;;;;5112202;28;20088;-70
2022/11/13 00:07:24;;;;;;;13.15;9.20;;;7.90;99.90;;;;;;5112476;28;20036;-70
2022/11/13 00:09:50;;;;;;;10.18;7.63;;;7.90;99.90;;;;;;5112160;28;20392;-70
2022/11/13 00:12:15;;;;;;;14.23;9.45;;;7.90;99.90;;;;;;5112390;28;20047;-70
2022/11/13 00:14:41;;;;;;;12.38;9.15;;;7.90;99.90;;;;;;5115330;28;20536;-70
2022/11/13 00:17:06;;;;;;;13.10;9.25;;;8.00;99.90;;;;;;5116255;28;20385;-70
2022/11/13 00:19:32;;;;;;;14.00;8.88;;;8.00;99.90;;;;;;5117385;28;20422;-70
2022/11/13 00:21:58;;;;;;;11.23;8.68;;;8.00;99.90;;;;;;5116021;28;20461;-70
2022/11/13 00:24:24;;;;;;;12.55;8.90;;;8.00;99.90;;;;;;5117545;28;20107;-70
2022/11/13 00:26:49;;;;;;;12.80;9.05;;;8.00;99.90;;;;;;5116062;28;20111;-70
2022/11/13 00:29:15;;;;;;;13.38;10.20;;;8.00;99.90;;;;;;5115988;28;20039;-70
2022/11/13 00:31:41;;;;;;;10.65;8.80;;;8.00;99.90;;;;;;5116123;28;20044;-70
2022/11/13 00:34:07;;;;;;;11.80;8.70;;;8.00;99.90;;;;;;5116121;28;20071;-70
2022/11/13 00:36:32;;;;;;;14.65;9.48;;;8.00;99.90;;;;;;5116109;28;20051;-70
2022/11/13 00:38:58;;;;;;;14.38;8.82;;;8.00;99.90;;;;;;5117258;28;20507;-70
2022/11/13 00:41:24;;;;;;;14.23;9.05;;;8.00;99.90;;;;;;5116851;28;20403;-70
2022/11/13 00:43:50;;;;;;;12.88;8.27;;;8.00;99.90;;;;;;5116019;28;20488;-70
2022/11/13 00:46:16;;;;;;;12.80;8.75;;;8.00;99.90;;;;;;5115660;28;20385;-70
2022/11/13 00:48:41;;;;;;;12.10;8.95;;;8.10;99.90;;;;;;5115885;28;20031;-70
2022/11/13 00:51:07;;;;;;;11.35;8.65;;;8.10;99.90;;;;;;5115766;28;20492;-70
2022/11/13 00:53:33;;;;;;;10.52;8.52;;;8.00;99.90;;;;;;5115894;28;20043;-70
2022/11/13 00:55:59;;;;;;;11.23;8.73;;;8.10;99.90;;;;;;5115489;28;20057;-70
2022/11/13 00:58:25;;;;;;;12.65;9.00;;;8.10;99.90;;;;;;5115574;28;20069;-70
2022/11/13 01:00:50;;;;;;;14.15;9.13;;;8.10;99.90;;;;;;5115328;28;20044;-70
2022/11/13 01:03:16;;;;;;;13.60;9.18;;;8.00;99.90;;;;;;5115290;28;20040;-70
2022/11/13 01:05:44;;;;;;;13.10;8.95;;;8.10;99.90;;;;;;5115343;28;20074;-70
2022/11/13 01:08:10;;;;;;;11.23;8.43;;;8.10;99.90;;;;;;5115287;28;20059;-70
2022/11/13 01:10:40;;;;;;;12.10;9.13;;;8.00;99.90;;;;;;5115403;28;20052;-70
2022/11/13 01:13:06;;;;;;;14.52;9.32;;;8.10;99.90;;;;;;5115418;28;20070;-70
2022/11/13 01:15:32;;;;;;;12.18;9.27;;;8.00;99.90;;;;;;5115302;28;20492;-70
2022/11/13 01:17:57;;;;;;;12.88;9.63;;;8.10;99.90;;;;;;5115246;28;20049;-70
2022/11/13 01:20:24;;;;;;;11.75;9.27;;;8.10;99.90;;;;;;5116288;28;20038;-70
2022/11/13 01:22:50;;;;;;;11.50;9.40;;;8.10;99.90;;;;;;5114894;28;20508;-70
2022/11/13 01:25:17;;;;;;;12.07;9.70;;;8.00;99.90;;;;;;5114497;28;20120;-70
2022/11/13 01:27:43;;;;;;;11.93;9.57;;;8.10;99.90;;;;;;5115158;28;20042;-70
2022/11/13 01:30:09;;;;;;;13.85;10.15;;;8.00;99.90;;;;;;5114869;28;20044;-70
2022/11/13 01:32:34;;;;;;;12.95;10.18;;;8.00;99.90;;;;;;5114704;28;20047;-71
2022/11/13 01:35:00;;;;;;;12.38;9.77;;;8.00;99.90;;;;;;5114736;28;20039;-70
2022/11/13 01:37:26;;;;;;;12.68;10.48;;;8.00;99.90;;;;;;5114722;28;20028;-70
2022/11/13 01:39:51;;;;;;;12.25;10.10;;;8.00;99.90;;;;;;5114562;28;20078;-70
2022/11/13 01:42:17;;;;;;;12.75;10.60;;;8.00;99.90;;;;;;5114365;28;20048;-70
2022/11/13 01:44:49;;;;;;;14.20;10.02;;;7.90;99.90;;;;;;5114581;28;20036;-70
2022/11/13 01:47:15;;;;;;;12.68;10.15;;;8.00;99.90;;;;;;5114550;28;20071;-70
2022/11/13 01:49:42;;;;;;;11.63;9.82;;;8.00;99.90;;;;;;5114458;28;20043;-70
2022/11/13 01:52:30;;;;;;;15.10;10.52;;;7.90;99.90;;;;;;5114343;28;20051;-70
2022/11/13 01:55:14;;;;;;;18.67;10.35;;;7.90;99.90;;;;;;5114529;28;20047;-70
2022/11/13 01:57:40;;;;;;;15.18;11.57;;;7.90;99.90;;;;;;5114283;28;20101;-70
2022/11/13 02:00:10;;;;;;;12.88;10.82;;;7.90;99.90;;;;;;5114498;28;20043;-70
2022/11/13 02:02:36;;;;;;;12.77;9.75;;;7.90;99.90;;;;;;5114143;28;20041;-70
2022/11/13 02:05:02;;;;;;;12.40;10.80;;;7.90;99.90;;;;;;5114149;28;20043;-70
2022/11/13 02:07:27;;;;;;;13.25;11.23;;;7.90;99.90;;;;;;5114093;28;20035;-70
2022/11/13 02:09:56;;;;;;;14.73;11.15;;;7.90;99.90;;;;;;5115338;28;20039;-70
2022/11/13 02:12:31;;;;;;;14.52;11.05;;;7.80;99.90;;;;;;5115465;28;20111;-70
2022/11/13 02:14:58;;;;;;;14.57;11.20;;;7.90;99.90;;;;;;5114246;28;20098;-70
2022/11/13 02:17:31;;;;;;;15.90;11.02;;;7.80;99.90;;;;;;5113874;28;20403;-70
2022/11/13 02:20:00;;;;;;;13.80;11.32;;;7.80;99.90;;;;;;5113907;28;20051;-70
2022/11/13 02:23:01;;;;;;;15.32;11.15;;;7.80;99.90;;;;;;5113749;28;20040;-70
2022/11/13 02:25:28;;;;;;;13.85;11.80;;;7.90;99.90;;;;;;5113800;28;20084;-70
2022/11/13 02:27:54;;;;;;;15.98;11.75;;;7.80;99.90;;;;;;5113691;28;20555;-70
2022/11/13 02:30:21;;;;;;;14.70;10.95;;;7.90;99.90;;;;;;5113961;28;20146;-70
2022/11/13 02:32:50;;;;;;;15.65;11.60;;;7.90;99.90;;;;;;5113505;28;20038;-70
2022/11/13 02:35:25;;;;;;;14.98;11.43;;;7.80;99.90;;;;;;5113558;28;20043;-70
2022/11/13 02:37:50;;;;;;;14.77;11.80;;;7.90;99.90;;;;;;5112686;28;20136;-70
2022/11/13 02:40:16;;;;;;;16.77;10.95;;;7.80;99.90;;;;;;5096436;28;20500;-70
2022/11/13 02:42:42;;;;;;;14.40;11.77;;;7.90;99.90;;;;;;5113120;28;20070;-70
2022/11/13 02:45:08;;;;;;;13.98;11.65;;;7.90;99.90;;;;;;5113332;28;20044;-70
2022/11/13 02:47:34;;;;;;;14.77;11.60;;;7.90;99.90;;;;;;5113320;28;20043;-70
2022/11/13 02:49:59;;;;;;;15.90;11.00;;;7.90;99.90;;;;;;5113455;28;20096;-71
2022/11/13 02:52:25;;;;;;;16.02;11.75;;;7.90;99.90;;;;;;5113165;28;20542;-70
2022/11/13 02:54:51;;;;;;;14.25;11.23;;;7.80;99.90;;;;;;5113209;28;20048;-70
2022/11/13 02:57:16;;;;;;;14.18;10.90;;;7.80;99.90;;;;;;5113134;28;20074;-70
2022/11/13 02:59:42;;;;;;;13.50;11.18;;;7.90;99.90;;;;;;5113031;28;20051;-70
2022/11/13 03:02:08;;;;;;;16.55;11.90;;;7.90;99.90;;;;;;5112949;28;20040;-70
2022/11/13 03:04:33;;;;;;;14.32;11.52;;;7.90;99.90;;;;;;5112997;28;20043;-70
2022/11/13 03:06:59;;;;;;;13.80;10.48;;;7.90;99.90;;;;;;5112985;28;20036;-70
2022/11/13 03:09:25;;;;;;;16.92;12.35;;;7.90;99.90;;;;;;5112879;28;20043;-70
2022/11/13 03:11:50;;;;;;;16.83;11.95;;;7.90;99.90;;;;;;5113050;28;20050;-70
2022/11/13 03:14:16;;;;;;;13.68;11.70;;;7.90;99.90;;;;;;5112838;28;20092;-70
2022/11/13 03:16:41;;;;;;;13.68;10.40;;;7.90;99.90;;;;;;5112786;28;20079;-70
2022/11/13 03:19:07;;;;;;;14.07;10.98;;;7.90;99.90;;;;;;5112807;28;20396;-70
2022/11/13 03:21:33;;;;;;;16.33;10.80;;;7.90;99.90;;;;;;5112694;28;20514;-70
2022/11/13 03:23:58;;;;;;;14.90;12.25;;;8.00;99.90;;;;;;5112992;28;20036;-70
2022/11/13 03:26:27;;;;;;;13.75;11.68;;;7.90;99.90;;;;;;5112672;28;20484;-70
2022/11/13 03:28:53;;;;;;;16.30;12.43;;;7.90;99.90;;;;;;5112610;28;20039;-70
2022/11/13 03:31:19;;;;;;;15.55;11.55;;;7.90;99.90;;;;;;5112793;28;20050;-70
2022/11/13 03:33:44;;;;;;;14.73;12.40;;;7.90;99.90;;;;;;5112524;28;20524;-70
2022/11/13 03:36:10;;;;;;;15.80;11.52;;;7.90;99.90;;;;;;5112773;28;20043;-70
2022/11/13 03:38:36;;;;;;;15.52;12.13;;;7.90;99.90;;;;;;5112473;28;20100;-70
2022/11/13 03:41:02;;;;;;;14.60;11.48;;;7.90;99.90;;;;;;5112654;28;20122;-70
2022/11/13 03:43:29;;;;;;;12.32;10.63;;;7.90;99.90;;;;;;5112334;28;20039;-70
2022/11/13 03:45:54;;;;;;;14.60;11.52;;;7.80;99.90;;;;;;5112443;28;20039;-70
2022/11/13 03:48:20;;;;;;;17.67;12.02;;;7.80;99.90;;;;;;5113256;28;20100;-70
2022/11/13 03:50:48;;;;;;;15.95;11.80;;;7.80;99.90;;;;;;5112350;28;20035;-70
2022/11/13 03:53:14;;;;;;;16.23;12.13;;;7.80;99.90;;;;;;5112580;28;20039;-70
2022/11/13 03:55:41;;;;;;;15.23;11.65;;;7.70;99.90;;;;;;5112568;28;20039;-70
2022/11/13 03:58:07;;;;;;;14.80;12.18;;;7.70;99.90;;;;;;5112250;28;20059;-70
2022/11/13 04:00:33;;;;;;;14.32;12.10;;;7.60;99.90;;;;;;5112562;28;20035;-70
2022/11/13 04:02:59;;;;;;;15.73;12.07;;;7.60;99.90;;;;;;5113736;28;20396;-70
2022/11/13 04:05:24;;;;;;;15.50;12.63;;;7.50;99.90;;;;;;5112491;28;20514;-70
2022/11/13 04:07:50;;;;;;;14.60;11.93;;;7.50;99.90;;;;;;5112410;28;20543;-70
2022/11/13 04:10:16;;;;;;;16.73;13.02;;;7.40;99.90;;;;;;5112174;28;20040;-70
2022/11/13 04:12:41;;;;;;;15.60;12.25;;;7.40;99.90;;;;;;5112352;28;20066;-70
2022/11/13 04:15:07;;;;;;;14.50;12.02;;;7.30;99.90;;;;;;5112137;28;20418;-70
2022/11/13 04:17:33;;;;;;;14.50;12.25;;;7.30;99.90;;;;;;5112070;28;20042;-70
2022/11/13 04:19:58;;;;;;;14.48;12.57;;;7.20;99.90;;;;;;5112003;28;20044;-70
2022/11/13 04:22:24;;;;;;;18.70;12.85;;;7.20;99.90;;;;;;5111941;28;20032;-70
2022/11/13 04:24:49;;;;;;;15.38;13.40;;;7.20;99.90;;;;;;5113281;28;20070;-70
2022/11/13 04:27:15;;;;;;;17.13;14.13;;;7.10;99.90;;;;;;5112008;28;20036;-70
2022/11/13 04:29:41;;;;;;;19.42;14.90;;;7.10;99.90;;;;;;5112031;28;20039;-70
2022/11/13 04:32:06;;;;;;;19.25;15.50;;;7.10;99.90;;;;;;5111825;28;20049;-70
2022/11/13 04:34:32;;;;;;;16.83;14.00;;;7.10;99.90;;;;;;5112206;28;20055;-70
2022/11/13 04:36:58;;;;;;;19.05;15.45;;;7.10;99.90;;;;;;5112204;28;20445;-70
2022/11/13 04:39:24;;;;;;;18.35;14.50;;;7.10;99.90;;;;;;5111762;28;20555;-70
2022/11/13 04:44:33;;;;;;;17.35;14.38;;;7.10;99.90;;;;;;5111853;28;20492;-70
2022/11/13 04:46:59;;;;;;;17.25;15.43;;;7.10;99.90;;;;;;5112045;28;20043;-70
2022/11/13 04:49:25;;;;;;;18.77;15.02;;;7.10;99.90;;;;;;5111766;28;20043;-70
2022/11/13 04:51:50;;;;;;;16.70;13.77;;;7.10;99.90;;;;;;5111717;28;20039;-70
2022/11/13 04:54:16;;;;;;;18.20;14.15;;;7.00;99.90;;;;;;5111969;28;20048;-70
2022/11/13 04:56:41;;;;;;;21.55;15.18;;;7.10;99.90;;;;;;5111755;28;20039;-70
2022/11/13 04:59:07;;;;;;;17.30;14.55;;;7.10;99.90;;;;;;5111741;28;20133;-70
2022/11/13 05:01:34;;;;;;;19.88;15.52;;;7.00;99.90;;;;;;5115572;28;20106;-70
2022/11/13 05:04:01;;;;;;;18.20;15.10;;;7.00;99.90;;;;;;5115382;28;20036;-70
2022/11/13 05:06:26;;;;;;;17.63;14.18;;;7.00;99.90;;;;;;5115599;28;20131;-70
2022/11/13 05:08:52;;;;;;;18.88;13.10;;;7.00;99.90;;;;;;5115317;28;20122;-70
2022/11/13 05:11:17;;;;;;;17.08;13.55;;;7.00;99.90;;;;;;5115184;28;20119;-70
2022/11/13 05:13:43;;;;;;;17.73;15.38;;;7.00;99.90;;;;;;5115454;28;20047;-70
2022/11/13 05:16:10;;;;;;;16.50;13.88;;;7.10;99.90;;;;;;5115444;28;20043;-70
2022/11/13 05:18:37;;;;;;;16.77;14.05;;;7.00;99.90;;;;;;5115049;28;20051;-70
2022/11/13 05:21:04;;;;;;;18.88;13.98;;;7.00;99.90;;;;;;5115265;28;20032;-70
2022/11/13 05:23:30;;;;;;;16.83;14.65;;;7.00;99.90;;;;;;5115212;28;20412;-70
2022/11/13 05:26:08;;;;;;;16.63;13.70;;;7.00;99.90;;;;;;5114972;28;20047;-70
2022/11/13 05:28:34;;;;;;;18.65;14.77;;;7.00;99.90;;;;;;5115192;28;20519;-70
2022/11/13 05:31:14;;;;;;;17.02;14.43;;;6.90;99.90;;;;;;5114841;28;20043;-70
2022/11/13 05:33:41;;;;;;;20.05;14.60;;;6.90;99.90;;;;;;5115124;28;20555;-70
2022/11/13 05:36:12;;;;;;;16.02;13.95;;;6.90;99.90;;;;;;5115067;28;20031;-70
2022/11/13 05:38:38;;;;;;;17.65;14.05;;;6.90;99.90;;;;;;5114730;28;20058;-70
2022/11/13 05:41:06;;;;;;;18.85;14.77;;;6.90;99.90;;;;;;5114529;28;20511;-70
2022/11/13 05:43:33;;;;;;;15.15;12.95;;;6.90;99.90;;;;;;5114805;28;20048;-70
2022/11/13 05:46:11;;;;;;;17.45;13.40;;;6.90;99.90;;;;;;5114601;28;20153;-70
2022/11/13 05:48:37;;;;;;;18.33;14.15;;;7.00;99.90;;;;;;5114834;28;20395;-70
2022/11/13 05:51:14;;;;;;;19.55;14.95;;;6.90;99.90;;;;;;5114363;28;20496;-70
2022/11/13 05:53:40;;;;;;;15.43;12.98;;;6.90;99.90;;;;;;5116312;28;20047;-70
2022/11/13 05:56:16;;;;;;;16.88;14.23;;;6.90;99.90;;;;;;5114626;28;20039;-70
2022/11/13 05:58:42;;;;;;;16.92;13.45;;;6.90;99.90;;;;;;5114260;28;20516;-70
2022/11/13 06:01:09;;;;;;;18.45;14.68;;;6.80;99.90;;;;;;5114502;28;20101;-70
2022/11/13 06:03:36;;;;;;;16.35;13.43;;;6.80;99.90;;;;;;5114190;28;20480;-70
2022/11/13 06:06:02;;;;;;;17.45;13.48;;;6.70;99.90;;;;;;5115307;28;20032;-70
2022/11/13 06:08:27;;;;;;;17.20;13.05;;;6.70;99.90;;;;;;5114404;28;20541;-70
2022/11/13 06:10:58;;;;;;;16.55;14.27;;;6.70;99.90;;;;;;5114188;28;20410;-70
2022/11/13 06:13:24;;;;;;;17.98;12.93;;;6.70;99.90;;;;;;5115332;28;20050;-70
2022/11/13 06:15:49;;;;;;;16.65;13.80;;;6.60;99.90;;;;;;5113981;28;20036;-70
2022/11/13 06:18:19;;;;;;;15.15;13.50;;;6.60;99.90;;;;;;5115114;28;20044;-70
2022/11/13 06:20:45;;;;;;;15.13;12.73;;;6.60;99.90;;;;;;5113860;28;20046;-70
2022/11/13 06:23:10;;;;;;;17.80;13.55;;;6.60;99.90;;;;;;5113823;28;20035;-70
2022/11/13 06:25:36;;;;;;;17.40;12.85;;;6.60;99.90;;;;;;5113992;28;20042;-70
2022/11/13 06:28:01;;;;;;;17.38;12.93;;;6.50;99.90;;;;;;5113973;28;20053;-70
2022/11/13 06:30:27;;;;;;;16.30;12.68;;;6.50;99.90;;;;;;5114266;28;20392;-70
2022/11/13 06:32:53;;;;;;;16.23;13.25;;;6.50;99.90;;;;;;5113820;28;20430;-70
2022/11/13 06:35:18;;;;;;;16.27;12.57;;;6.50;99.90;;;;;;5113842;28;20392;-70
2022/11/13 06:37:44;;;;;;;14.70;13.18;;;6.50;99.90;;;;;;5113796;28;20127;-70
2022/11/13 06:40:11;;;;;;;15.77;12.88;;;6.50;99.90;;;;;;5113431;28;20388;-70
2022/11/13 06:42:36;;;;;;;15.93;13.02;;;6.50;99.90;;;;;;5096198;28;20043;-70
2022/11/13 06:45:02;;;;;;;16.70;13.63;;;6.40;99.90;;;;;;5113366;28;20040;-70
2022/11/13 06:47:27;;;;;;;15.85;12.93;;;6.40;99.90;;;;;;5113358;28;20043;-70
2022/11/13 06:49:53;;;;;;;17.88;13.68;;;6.40;99.90;;;;;;5113297;28;20077;-70
2022/11/13 06:52:19;;;;;;;17.08;13.70;;;6.40;99.90;;;;;;5113173;28;20122;-70
2022/11/13 06:54:44;;;;;;;17.55;14.15;;;6.40;99.90;;;;;;5113500;28;20047;-70
2022/11/13 06:57:10;;;;;;;16.67;13.68;;;6.40;99.90;;;;;;5113404;28;20373;-70
2022/11/13 06:59:35;;;;;;;17.48;12.57;;;6.40;99.90;;;;;;5113184;28;20514;-70
2022/11/13 07:02:01;;;;;;;17.33;13.20;;;6.30;99.90;;;;;;5113313;28;20087;-70
2022/11/13 07:04:27;;;;;;;14.23;12.57;;;6.30;99.90;;;;;;5113322;28;20058;-70
2022/11/13 07:06:53;;;;;;;18.00;12.90;;;6.40;99.90;;;;;;5113013;28;20480;-70
2022/11/13 07:09:18;;;;;;;18.95;13.07;;;6.30;99.90;;;;;;5114773;28;20104;-70
2022/11/13 07:11:44;;;;;;;17.67;13.40;;;6.40;99.90;;;;;;5113127;28;20403;-70
2022/11/13 07:14:12;;;;;;;17.20;11.95;;;6.40;99.90;;;;;;5112888;28;20515;-70
2022/11/13 07:16:38;;;;;;;16.70;13.30;;;6.40;99.90;;;;;;5112811;28;20096;-70
2022/11/13 07:19:04;;;;;;;15.48;13.25;;;6.40;99.90;;;;;;5112735;28;20122;-70
2022/11/13 07:21:29;;;;;;;16.15;13.60;;;6.40;99.90;;;;;;5096566;28;20043;-70
2022/11/13 07:23:55;;;;;;;17.00;13.32;;;6.40;99.90;;;;;;5112422;28;20450;-70
2022/11/13 07:26:21;;;;;;;19.58;14.55;;;6.30;99.90;;;;;;5112649;28;20380;-70
2022/11/13 07:28:48;;;;;;;19.60;14.35;;;6.30;99.90;;;;;;5112681;28;20052;-70
2022/11/13 07:31:15;;;;;;;14.70;13.07;;;6.30;99.90;;;;;;5112788;28;20432;-70
2022/11/13 07:33:41;;;;;;;17.10;13.23;;;6.30;99.90;;;;;;5112574;28;20078;-70
2022/11/13 07:36:08;;;;;;;17.60;13.68;;;6.30;99.90;;;;;;5095629;28;20035;-70
2022/11/13 07:38:33;;;;;;;17.42;13.77;;;6.40;99.90;;;;;;5112467;28;20039;-70
2022/11/13 07:40:59;;;;;;;18.92;13.20;;;6.30;99.90;;;;;;5112464;28;20089;-70
2022/11/13 07:43:25;;;;;;;16.02;13.23;;;6.30;99.90;;;;;;5112363;28;20072;-70
2022/11/13 07:45:53;;;;;;;15.57;12.40;;;6.40;99.90;;;;;;5112405;28;20042;-70
2022/11/13 07:48:20;;;;;;;18.98;13.50;;;6.40;99.90;;;;;;5112421;28;20043;-70
2022/11/13 07:50:46;;;;;;;15.40;11.60;;;6.40;99.90;;;;;;5112316;28;20047;-70
2022/11/13 07:53:11;;;;;;;15.75;12.57;;;6.40;99.90;;;;;;5113604;28;20035;-70
2022/11/13 07:55:37;;;;;;;18.05;13.50;;;6.40;99.90;;;;;;5112306;28;20043;-70
2022/11/13 07:58:04;;;;;;;17.48;12.85;;;6.40;99.90;;;;;;5112221;28;20166;-70
2022/11/13 08:00:31;;;;;;;16.17;12.70;;;6.40;99.90;;;;;;5095294;28;20035;-70
2022/11/13 08:02:57;;;;;;;17.17;13.10;;;6.40;99.90;;;;;;5095525;28;20484;-70
2022/11/13 08:05:23;;;;;;;14.88;11.88;;;6.50;99.90;;;;;;5112557;28;20036;-70
2022/11/13 08:07:52;;;;;;;15.13;12.82;;;6.50;99.90;;;;;;5112260;28;20511;-70
2022/11/13 08:10:18;;;;;;;13.23;10.65;;;6.50;99.90;;;;;;5112187;28;20053;-70
2022/11/13 08:12:45;;;;;;;16.58;12.10;;;6.50;99.90;;;;;;5112089;28;20518;-70
2022/11/13 08:15:11;;;;;;;15.75;12.13;;;6.50;99.90;;;;;;5112443;28;20039;-70
2022/11/13 08:17:37;;;;;;;15.55;12.20;;;6.60;99.90;;;;;;5113341;28;20553;-70
2022/11/13 08:20:03;;;;;;;15.82;12.02;;;6.60;99.90;;;;;;5111994;28;20039;-70
2022/11/13 08:22:29;;;;;;;15.38;12.35;;;6.70;99.90;;;;;;5113492;28;20085;-70
2022/11/13 08:24:55;;;;;;;13.57;11.25;;;6.70;99.90;;;;;;5112016;28;20036;-70
2022/11/13 08:27:21;;;;;;;13.75;11.82;;;6.70;99.90;;;;;;5113285;28;20042;-70
2022/11/13 08:29:48;;;;;;;11.52;10.32;;;6.80;99.90;;;;;;5112020;28;20050;-70
2022/11/13 08:32:15;;;;;;;13.98;11.80;;;6.80;99.90;;;;;;5111879;28;20040;-70
2022/11/13 08:34:41;;;;;;;13.63;10.90;;;6.90;99.90;;;;;;5113159;28;20074;-70
2022/11/13 08:37:07;;;;;;;13.02;10.57;;;6.90;99.90;;;;;;5115951;28;20089;-70
2022/11/13 08:39:34;;;;;;;12.07;10.65;;;6.90;99.90;;;;;;5115808;28;20044;-70
2022/11/13 08:42:00;;;;;;;14.98;10.13;;;7.00;99.90;;;;;;5115597;28;20035;-70
2022/11/13 08:44:26;;;;;;;13.63;10.05;;;7.00;99.90;;;;;;5116099;28;20484;-70
2022/11/13 08:46:51;;;;;;;15.93;11.50;;;7.00;99.90;;;;;;5116060;28;20042;-70
2022/11/13 08:49:17;;;;;;;12.10;10.52;;;7.10;99.90;;;;;;5115715;28;20492;-70
2022/11/13 08:51:42;;;;;;;13.27;10.45;;;7.10;99.90;;;;;;5115931;28;20043;-69
2022/11/13 08:54:08;;;;;;;12.30;10.32;;;7.10;99.90;;;;;;5115861;28;20036;-70
2022/11/13 08:56:33;;;;;;;14.75;10.30;;;7.20;99.90;;;;;;5115815;28;20131;-70
2022/11/13 08:58:59;;;;;;;13.40;10.23;;;7.20;99.90;;;;;;5115568;28;20040;-70
2022/11/13 09:01:24;;;;;;;13.85;9.75;;;7.20;99.90;;;;;;5115314;28;20073;-70
2022/11/13 09:03:50;;;;;;;13.02;10.50;;;7.30;99.90;;;;;;5115353;28;20043;-70
2022/11/13 09:06:15;;;;;;;14.35;9.95;;;7.30;99.90;;;;;;5115398;28;20051;-70
2022/11/13 09:08:41;;;;;;;13.20;9.48;;;7.40;99.90;;;;;;5115308;28;20066;-70
2022/11/13 09:11:07;;;;;;;13.75;9.35;;;7.40;99.90;;;;;;5116738;28;20043;-70
2022/11/13 09:13:33;;;;;;;12.50;9.68;;;7.50;99.90;;;;;;5115455;28;20051;-70
2022/11/13 09:16:00;;;;;;;13.23;10.60;;;7.50;99.90;;;;;;5098448;28;20075;-70
2022/11/13 09:18:25;;;;;;;13.15;10.00;;;7.60;99.90;;;;;;5116344;28;20119;-70
2022/11/13 09:20:51;;;;;;;13.95;10.10;;;7.70;99.90;;;;;;5116297;28;20474;-70
2022/11/13 09:23:16;;;;;;;11.15;9.23;;;7.70;99.90;;;;;;5114976;28;20035;-70
2022/11/13 09:25:42;;;;;;;13.65;10.70;;;7.80;99.90;;;;;;5115249;28;20054;-70
2022/11/13 09:28:09;;;;;;;12.60;9.60;;;7.80;99.90;;;;;;5115205;28;20392;-70
2022/11/13 09:30:37;;;;;;;14.02;9.48;;;7.90;99.90;;;;;;5116428;28;20059;-71
2022/11/13 09:33:03;;;;;;;13.52;9.70;;;7.90;99.90;;;;;;5114825;28;20050;-71
2022/11/13 09:35:33;;;;;;;12.43;9.50;;;8.00;99.90;;;;;;5114814;28;20040;-71
2022/11/13 09:38:06;;;;;;;11.60;9.27;;;8.10;99.90;;;;;;5114698;28;20615;-71
2022/11/13 09:40:37;;;;;;;11.37;9.20;;;8.10;99.90;;;;;;5114729;28;20113;-71
2022/11/13 09:43:09;;;;;;;12.13;9.18;;;8.10;99.90;;;;;;5114831;28;20332;-71
2022/11/13 09:45:35;;;;;;;12.10;9.20;;;8.10;99.90;;;;;;5114873;28;20027;-71
2022/11/13 09:48:24;;;;;;;13.25;9.60;;;8.20;99.90;;;;;;5114037;28;20511;-71
2022/11/13 09:50:52;;;;;;;9.98;8.77;;;8.30;99.90;;;;;;5114479;28;20040;-71
2022/11/13 09:53:18;;;;;;;12.68;8.65;;;8.30;99.90;;;;;;5114437;28;20040;-71
2022/11/13 09:56:03;;;;;;;11.95;8.70;;;8.40;99.90;;;;;;5114409;28;20105;-71
2022/11/13 09:58:52;;;;;;;11.00;8.52;;;8.50;99.90;;;;;;5114309;28;20077;-71
2022/11/13 10:01:38;;;;;;;10.57;8.20;;;8.60;99.90;;;;;;5115951;28;20381;-71
2022/11/13 10:04:09;;;;;;;11.80;8.60;;;8.70;99.90;;;;;;5114503;28;20043;-71
2022/11/13 10:07:12;;;;;;;9.70;7.85;;;8.70;99.90;;;;;;5114282;28;20073;-71
2022/11/13 10:10:24;;;;;;;10.38;7.60;;;8.90;99.90;;;;;;5114168;28;20043;-71
2022/11/13 10:12:53;;;;;;;11.05;8.98;;;9.00;99.90;;;;;;5016078;28;20525;-71
2022/11/13 10:15:19;;;;;;;10.95;8.00;;;9.00;99.90;;;;;;5106420;27;20055;-71
2022/11/13 10:17:57;;;;;;;9.55;7.53;;;9.10;99.90;;;;;;5114292;28;20040;-71
2022/11/13 10:20:39;;;;;;;8.10;6.93;;;9.20;99.90;;;;;;5114068;28;20457;-71
2022/11/13 10:23:15;;;;;;;8.98;7.00;;;9.30;99.90;;;;;;5113890;28;20044;-71
2022/11/13 10:25:42;;;;;;;9.50;7.13;;;9.30;99.90;;;;;;5113829;28;20081;-71
2022/11/13 10:28:13;;;;;;;8.80;7.53;;;9.40;99.90;;;;;;5113802;28;20031;-71
2022/11/13 10:30:39;;;;;;;11.85;7.60;;;9.40;99.90;;;;;;5113661;28;20067;-73
2022/11/13 10:33:07;;;;;;;9.57;7.30;;;9.50;99.90;;;;;;5113590;28;20040;-71
2022/11/13 10:35:51;;;;;;;7.72;6.65;;;9.70;99.90;;;;;;5113868;28;20044;-71
2022/11/13 10:38:26;;;;;;;8.52;6.50;;;9.80;99.90;;;;;;5113745;28;20056;-73
2022/11/13 10:41:08;;;;;;;7.95;5.85;;;9.90;99.90;;;;;;5096764;28;20492;-71
2022/11/13 10:43:33;;;;;;;6.47;5.70;;;10.00;99.90;;;;;;5113662;28;20048;-71
2022/11/13 10:46:04;;;;;;;6.95;6.18;;;10.10;99.90;;;;;;5113470;28;20616;-71
2022/11/13 10:48:32;;;;;;;7.88;5.97;;;10.10;99.90;;;;;;5113417;28;20118;-71
2022/11/13 10:51:02;;;;;;;7.47;5.20;;;10.20;99.90;;;;;;5113242;28;20556;-73
2022/11/13 10:53:38;;;;;;;6.57;5.38;;;10.30;99.90;;;;;;5113307;28;20161;-75
2022/11/13 10:56:20;;;;;;;8.35;5.40;;;10.40;99.90;;;;;;5113224;28;20039;-74
2022/11/13 10:59:14;;;;;;;7.83;5.10;;;10.60;99.90;;;;;;5112281;28;20488;-74
2022/11/13 11:01:42;;;;;;;7.20;5.53;;;11.10;99.90;;;;;;5113276;28;20080;-74
2022/11/13 11:04:22;;;;;;;6.18;4.90;;;12.60;99.90;;;;;;5113095;28;20044;-74
2022/11/13 11:06:48;;;;;;;6.57;5.00;;;14.60;99.90;;;;;;5113081;28;20381;-74
2022/11/13 11:09:31;;;;;;;6.20;4.70;;;16.20;97.60;;;;;;5113053;28;20043;-74
2022/11/13 11:12:17;;;;;;;6.83;4.97;;;17.10;93.30;;;;;;5112925;28;20522;-73
2022/11/13 11:15:02;;;;;;;7.55;4.50;;;17.20;92.20;;;;;;5113238;28;20057;-74
2022/11/13 11:17:58;;;;;;;7.65;4.85;;;16.70;90.80;;;;;;5112837;28;20128;-74
2022/11/13 11:20:45;;;;;;;6.07;4.68;;;16.60;90.50;;;;;;5112854;28;20119;-74
2022/11/13 11:23:18;;;;;;;5.80;4.47;;;16.10;90.70;;;;;;5113059;28;20122;-73
2022/11/13 11:25:53;;;;;;;6.38;5.00;;;15.40;91.40;;;;;;5112790;28;20043;-73
2022/11/13 11:28:41;;;;;;;4.90;4.20;;;14.80;91.90;;;;;;5112956;28;20135;-74
2022/11/13 11:31:25;;;;;;;8.40;4.38;;;14.40;92.20;;;;;;5113346;28;20397;-74
2022/11/13 11:34:18;;;;;;;5.85;4.50;;;14.20;92.80;;;;;;5112900;28;20120;-74
2022/11/13 11:37:11;;;;;;;6.40;4.80;;;13.90;93.40;;;;;;5112636;28;20035;-74
2022/11/13 11:39:50;;;;;;;6.05;4.78;;;13.70;93.80;;;;;;5112426;28;20035;-74
2022/11/13 11:42:27;;;;;;;5.88;4.47;;;13.60;94.10;;;;;;5112260;28;20089;-74
2022/11/13 11:45:19;;;;;;;7.13;4.95;;;13.60;94.30;;;;;;5112408;28;20039;-74
2022/11/13 11:47:45;;;;;;;6.47;4.68;;;13.50;94.20;;;;;;5112442;28;20028;-74
2022/11/13 11:50:16;;;;;;;5.18;4.35;;;13.50;94.60;;;;;;5112348;28;20099;-74
2022/11/13 11:52:54;;;;;;;6.00;4.18;;;13.60;94.80;;;;;;5112317;28;20040;-74
2022/11/13 11:55:56;;;;;;;6.43;4.63;;;13.50;94.40;;;;;;5112376;28;20036;-74
2022/11/13 11:58:53;;;;;;;5.90;4.03;;;13.40;94.50;;;;;;5081528;28;20056;-73
2022/11/13 12:01:46;;;;;;;4.53;3.90;;;13.50;94.20;;;;;;5112212;28;20385;-74
2022/11/13 12:04:33;;;;;;;5.47;3.95;;;14.70;93.50;;;;;;5095282;28;20035;-74
2022/11/13 12:07:17;;;;;;;5.25;3.95;;;16.70;91.00;;;;;;5112485;28;20399;-73
2022/11/13 12:09:52;;;;;;;4.85;3.55;;;18.90;84.40;;;;;;5113738;28;20043;-73
2022/11/13 12:12:56;;;;;;;4.70;3.38;;;20.70;77.60;;;;;;5116363;28;20047;-73
2022/11/13 12:15:42;;;;;;;7.00;3.70;;;22.00;69.70;;;;;;5116382;28;20047;-74
2022/11/13 12:18:18;;;;;;;5.72;3.78;;;23.00;65.10;;;;;;5116256;28;20051;-74
2022/11/13 12:20:50;;;;;;;5.38;3.70;;;23.80;62.70;;;;;;5116457;28;20484;-74
2022/11/13 12:23:53;;;;;;;4.38;3.47;;;24.20;60.00;;;;;;5116201;28;20047;-74
2022/11/13 12:26:34;;;;;;;5.00;3.80;;;24.50;57.50;;;;;;5116999;28;20036;-74
2022/11/13 12:29:18;;;;;;;6.22;3.72;;;25.00;56.70;;;;;;5116122;28;20040;-74
2022/11/13 12:32:06;;;;;;;4.95;3.40;;;25.40;55.20;;;;;;5116022;28;20105;-74
2022/11/13 12:34:40;;;;;;;5.03;3.15;;;25.70;52.50;;;;;;5116337;28;20478;-74
2022/11/13 12:37:12;;;;;;;4.90;3.75;;;25.90;52.20;;;;;;5116237;28;20048;-74
2022/11/13 12:39:55;;;;;;;4.47;3.45;;;25.90;50.50;;;;;;5116001;28;20052;-74
2022/11/13 12:43:01;;;;;;;6.22;3.50;;;24.90;49.70;;;;;;5115677;28;20077;-71
2022/11/13 12:45:36;;;;;;;4.18;3.38;;;23.90;51.20;;;;;;5075239;28;20048;-72
2022/11/13 12:48:19;;;;;;;8.20;4.25;;;23.00;53.30;;;;;;5115727;28;20480;-71
2022/11/13 12:50:58;;;;;;;6.10;4.00;;;22.10;53.60;;;;;;5115618;28;20384;-71
2022/11/13 12:53:30;;;;;;;5.95;4.20;;;21.00;55.10;;;;;;5115925;28;20039;-72
2022/11/13 12:56:01;;;;;;;4.63;3.30;;;20.10;57.90;;;;;;5115907;28;20036;-73